createdAt,value
2019-03-30T00:01:08.759Z,35.58
2019-03-30T00:03:40.913Z,34.92
2019-03-30T00:06:11.879Z,41.25
2019-03-30T00:08:42.860Z,35.15
2019-03-30T00:11:13.806Z,28.20
2019-03-30T00:13:44.840Z,34.43
2019-03-30T00:16:15.835Z,27.15
2019-03-30T00:18:47.356Z,38.10
2019-03-30T00:21:18.432Z,48.08
2019-03-30T00:23:49.575Z,33.53
2019-03-30T00:26:20.768Z,28.52
2019-03-30T00:28:52.786Z,37.23
2019-03-30T00:31:23.735Z,35.75
2019-03-30T00:33:54.787Z,28.30
2019-03-30T00:36:25.902Z,38.45
2019-03-30T00:38:57.027Z,50.52
2019-03-30T00:41:27.998Z,33.15
2019-03-30T00:43:58.942Z,33.45
2019-03-30T00:46:29.961Z,40.58
2019-03-30T00:49:00.978Z,44.63
2019-03-30T00:51:31.954Z,42.20
2019-03-30T00:54:02.895Z,34.10
2019-03-30T00:56:34.022Z,35.70
2019-03-30T00:59:04.973Z,44.08
2019-03-30T01:01:35.948Z,36.42
2019-03-30T01:04:06.988Z,39.30
2019-03-30T01:06:37.968Z,52.48
2019-03-30T01:09:09.719Z,49.98
2019-03-30T01:11:40.687Z,40.33
2019-03-30T01:14:11.729Z,38.05
2019-03-30T01:16:42.703Z,37.58
2019-03-30T01:19:13.650Z,33.85
2019-03-30T01:21:44.705Z,32.30
2019-03-30T01:24:15.693Z,35.80
2019-03-30T01:26:46.670Z,37.83
2019-03-30T01:29:17.651Z,33.13
2019-03-30T01:31:48.595Z,28.85
2019-03-30T01:34:19.619Z,27.35
2019-03-30T01:36:51.330Z,34.18
2019-03-30T01:39:22.373Z,28.32
2019-03-30T01:41:53.331Z,33.23
2019-03-30T01:44:24.301Z,44.20
2019-03-30T01:46:55.270Z,31.57
2019-03-30T01:49:26.239Z,42.10
2019-03-30T01:51:57.199Z,34.90
2019-03-30T01:54:28.183Z,36.23
2019-03-30T01:56:59.130Z,40.17
2019-03-30T01:59:30.112Z,36.20
2019-03-30T02:02:01.068Z,46.95
2019-03-30T02:04:32.042Z,41.23
2019-03-30T02:07:02.989Z,50.75
2019-03-30T02:09:33.973Z,47.88
2019-03-30T02:12:05.066Z,40.45
2019-03-30T02:14:36.064Z,43.02
2019-03-30T02:17:07.070Z,45.30
2019-03-30T02:19:38.026Z,46.68
2019-03-30T02:22:09.049Z,41.48
2019-03-30T02:24:40.087Z,44.70
2019-03-30T02:27:11.067Z,42.98
2019-03-30T02:29:42.029Z,67.03
2019-03-30T02:32:13.016Z,50.73
2019-03-30T02:34:43.986Z,41.18
2019-03-30T02:37:15.033Z,40.08
2019-03-30T02:39:46.061Z,37.93
2019-03-30T02:42:17.039Z,43.58
2019-03-30T02:44:47.997Z,44.60
2019-03-30T02:47:18.969Z,34.55
2019-03-30T02:49:49.935Z,40.28
2019-03-30T02:52:20.912Z,36.80
2019-03-30T02:54:51.957Z,46.05
2019-03-30T02:57:23.037Z,50.95
2019-03-30T02:59:55.024Z,33.30
2019-03-30T03:02:26.023Z,38.58
2019-03-30T03:04:57.024Z,38.40
2019-03-30T03:07:28.044Z,37.75
2019-03-30T03:09:59.033Z,30.45
2019-03-30T03:12:29.984Z,33.48
2019-03-30T03:15:00.963Z,42.10
2019-03-30T03:17:31.938Z,35.43
2019-03-30T03:20:02.989Z,34.55
2019-03-30T03:22:33.945Z,29.77
2019-03-30T03:25:06.653Z,34.60
2019-03-30T03:27:37.588Z,34.53
2019-03-30T03:30:09.038Z,31.48
2019-03-30T03:32:40.014Z,32.48
2019-03-30T03:35:11.157Z,30.48
2019-03-30T03:37:45.239Z,28.23
2019-03-30T03:40:14.888Z,44.88
2019-03-30T03:42:45.914Z,26.65
2019-03-30T03:45:16.979Z,28.23
2019-03-30T03:47:47.922Z,38.88
2019-03-30T03:50:41.639Z,27.93
2019-03-30T03:53:15.207Z,34.70
2019-03-30T03:55:47.089Z,37.33
2019-03-30T03:58:19.133Z,32.95
2019-03-30T04:00:52.103Z,39.75
2019-03-30T04:03:24.547Z,39.23
2019-03-30T04:05:58.794Z,37.70
2019-03-30T04:08:32.528Z,29.57
2019-03-30T04:11:04.266Z,34.88
2019-03-30T04:13:35.220Z,30.17
2019-03-30T04:16:06.533Z,34.08
2019-03-30T04:18:37.549Z,33.15
2019-03-30T04:21:08.583Z,26.75
2019-03-30T04:23:40.820Z,33.18
2019-03-30T04:26:11.824Z,30.15
2019-03-30T04:28:42.831Z,31.07
2019-03-30T04:31:13.873Z,31.65
2019-03-30T04:33:44.869Z,28.15
2019-03-30T04:36:15.858Z,28.42
2019-03-30T04:38:46.846Z,33.63
2019-03-30T04:41:17.799Z,26.65
2019-03-30T04:43:48.779Z,35.60
2019-03-30T04:46:19.729Z,27.65
2019-03-30T04:48:50.747Z,30.52
2019-03-30T04:51:21.710Z,24.57
2019-03-30T04:53:52.702Z,33.55
2019-03-30T04:56:23.711Z,32.00
2019-03-30T04:58:54.709Z,37.42
2019-03-30T05:01:25.663Z,45.25
2019-03-30T05:03:56.647Z,36.17
2019-03-30T05:06:27.599Z,38.40
2019-03-30T05:08:58.573Z,46.90
2019-03-30T05:11:29.518Z,41.10
2019-03-30T05:14:00.493Z,34.50
2019-03-30T05:16:31.452Z,36.38
2019-03-30T05:19:02.425Z,30.05
2019-03-30T05:21:33.418Z,38.10
2019-03-30T05:24:04.370Z,35.55
2019-03-30T05:26:35.353Z,33.88
2019-03-30T05:29:08.304Z,33.35
2019-03-30T05:31:39.287Z,28.77
2019-03-30T05:34:10.236Z,35.78
2019-03-30T05:36:41.301Z,31.15
2019-03-30T05:39:13.314Z,41.33
2019-03-30T05:41:44.352Z,34.83
2019-03-30T05:44:16.333Z,37.28
2019-03-30T05:46:47.308Z,40.40
2019-03-30T05:49:18.255Z,139.18
2019-03-30T05:51:49.234Z,66.28
2019-03-30T05:54:20.193Z,36.08
2019-03-30T05:56:51.175Z,35.80
2019-03-30T05:59:22.117Z,35.68
2019-03-30T06:01:53.093Z,25.25
2019-03-30T06:04:24.042Z,26.82
2019-03-30T06:06:55.018Z,28.27
2019-03-30T06:09:26.066Z,28.62
2019-03-30T06:11:57.049Z,117.70
2019-03-30T06:14:27.997Z,34.08
2019-03-30T06:16:58.968Z,48.45
2019-03-30T06:19:29.910Z,23.15
2019-03-30T06:22:00.894Z,17.92
2019-03-30T06:24:32.837Z,22.50
2019-03-30T06:27:03.809Z,21.45
2019-03-30T06:29:34.761Z,19.07
2019-03-30T06:32:05.740Z,13.65
2019-03-30T06:34:36.678Z,16.32
2019-03-30T06:37:07.638Z,13.30
2019-03-30T06:39:38.629Z,13.53
2019-03-30T06:42:09.576Z,18.00
2019-03-30T06:44:40.615Z,14.43
2019-03-30T06:47:11.551Z,18.02
2019-03-30T06:49:42.528Z,11.25
2019-03-30T06:52:13.465Z,28.00
2019-03-30T06:54:44.428Z,10.98
2019-03-30T06:57:15.397Z,18.85
2019-03-30T06:59:46.367Z,12.23
2019-03-30T07:02:17.500Z,12.10
2019-03-30T07:04:48.965Z,18.98
2019-03-30T07:07:20.499Z,12.75
2019-03-30T07:09:53.631Z,13.65
2019-03-30T07:12:25.839Z,21.70
2019-03-30T07:14:59.814Z,11.25
2019-03-30T07:17:31.641Z,12.65
2019-03-30T07:20:04.510Z,25.00
2019-03-30T07:22:35.441Z,10.75
2019-03-30T07:25:07.418Z,11.97
2019-03-30T07:27:39.445Z,15.20
2019-03-30T07:30:10.604Z,9.93
2019-03-30T07:32:41.542Z,27.15
2019-03-30T07:35:12.533Z,20.40
2019-03-30T07:37:43.531Z,8.53
2019-03-30T07:40:14.690Z,10.38
2019-03-30T07:42:45.713Z,20.68
2019-03-30T07:45:16.780Z,11.38
2019-03-30T07:47:47.748Z,19.42
2019-03-30T07:50:18.812Z,20.12
2019-03-30T07:52:50.775Z,11.55
2019-03-30T07:55:21.711Z,14.47
2019-03-30T07:57:52.712Z,18.48
2019-03-30T08:00:27.991Z,20.88
2019-03-30T08:02:56.511Z,14.47
2019-03-30T08:05:27.456Z,19.42
2019-03-30T08:07:58.418Z,18.55
2019-03-30T08:10:29.543Z,14.63
2019-03-30T08:13:00.555Z,19.50
2019-03-30T08:15:31.562Z,15.32
2019-03-30T08:18:02.532Z,19.45
2019-03-30T08:20:33.476Z,16.10
2019-03-30T08:23:04.446Z,19.80
2019-03-30T08:25:35.394Z,16.37
2019-03-30T08:28:06.371Z,20.50
2019-03-30T08:30:37.358Z,15.35
2019-03-30T08:33:08.308Z,21.80
2019-03-30T08:35:40.400Z,36.45
2019-03-30T08:38:11.351Z,21.27
2019-03-30T08:40:42.359Z,15.65
2019-03-30T08:43:15.148Z,19.92
2019-03-30T08:45:48.755Z,19.90
2019-03-30T08:48:18.803Z,20.12
2019-03-30T08:50:50.292Z,16.12
2019-03-30T08:53:21.344Z,26.52
2019-03-30T08:55:52.321Z,17.62
2019-03-30T08:58:23.287Z,18.05
2019-03-30T09:00:54.256Z,22.75
2019-03-30T09:03:25.210Z,15.88
2019-03-30T09:05:56.293Z,19.85
2019-03-30T09:08:27.237Z,20.57
2019-03-30T09:10:58.213Z,20.40
2019-03-30T09:13:29.169Z,24.45
2019-03-30T09:16:00.144Z,52.55
2019-03-30T09:18:31.120Z,19.77
2019-03-30T09:21:02.108Z,20.65
2019-03-30T09:23:33.134Z,21.27
2019-03-30T09:26:04.126Z,21.45
2019-03-30T09:28:35.110Z,31.57
2019-03-30T09:31:06.111Z,36.95
2019-03-30T09:33:37.108Z,30.30
2019-03-30T09:36:08.148Z,19.98
2019-03-30T09:38:40.314Z,57.85
2019-03-30T09:41:11.399Z,41.83
2019-03-30T09:43:44.123Z,26.48
2019-03-30T09:46:15.078Z,22.60
2019-03-30T09:48:46.084Z,26.80
2019-03-30T09:51:17.047Z,44.88
2019-03-30T09:53:48.064Z,20.12
2019-03-30T09:56:19.083Z,25.00
2019-03-30T09:58:50.049Z,24.72
2019-03-30T10:01:21.009Z,25.25
2019-03-30T10:03:51.985Z,33.35
2019-03-30T10:06:33.797Z,33.58
2019-03-30T10:08:55.686Z,29.98
2019-03-30T10:11:26.664Z,27.20
2019-03-30T10:13:57.656Z,35.48
2019-03-30T10:16:28.620Z,33.33
2019-03-30T10:18:59.597Z,59.03
2019-03-30T10:21:30.582Z,22.40
2019-03-30T10:24:01.571Z,33.13
2019-03-30T10:26:33.678Z,32.70
2019-03-30T10:29:04.656Z,26.83
2019-03-30T10:31:35.638Z,25.23
2019-03-30T10:34:06.602Z,22.50
2019-03-30T10:36:37.597Z,29.53
2019-03-30T10:39:09.547Z,24.70
2019-03-30T10:41:40.631Z,33.43
2019-03-30T10:44:11.738Z,20.37
2019-03-30T10:46:42.804Z,21.43
2019-03-30T10:49:13.760Z,23.00
2019-03-30T10:51:44.884Z,34.10
2019-03-30T10:54:15.821Z,27.47
2019-03-30T10:56:46.821Z,27.90
2019-03-30T10:59:17.779Z,19.03
2019-03-30T11:01:48.829Z,20.03
2019-03-30T11:04:19.993Z,18.97
2019-03-30T11:06:51.000Z,24.80
2019-03-30T11:09:21.982Z,19.30
2019-03-30T11:11:52.974Z,24.17
2019-03-30T11:14:23.958Z,21.83
2019-03-30T11:16:54.909Z,23.00
2019-03-30T11:19:25.899Z,26.20
2019-03-30T11:21:56.878Z,26.20
2019-03-30T11:24:27.908Z,28.60
2019-03-30T11:26:58.856Z,28.77
2019-03-30T11:29:29.842Z,17.60
2019-03-30T11:32:00.800Z,19.37
2019-03-30T11:34:31.783Z,20.90
2019-03-30T11:37:02.730Z,29.73
2019-03-30T11:39:33.732Z,52.57
2019-03-30T11:42:04.680Z,21.80
2019-03-30T11:44:36.215Z,27.60
2019-03-30T11:47:07.286Z,25.77
2019-03-30T11:49:38.458Z,28.43
2019-03-30T11:52:09.405Z,17.33
2019-03-30T11:54:40.465Z,28.20
2019-03-30T11:57:12.463Z,24.37
2019-03-30T11:59:44.391Z,21.40
2019-03-30T12:02:27.294Z,23.70
2019-03-30T12:04:48.052Z,23.73
2019-03-30T12:07:19.043Z,26.93
2019-03-30T12:09:49.998Z,37.47
2019-03-30T12:12:20.994Z,43.80
2019-03-30T12:14:51.968Z,28.67
2019-03-30T12:17:23.957Z,46.83
2019-03-30T12:19:54.912Z,17.87
2019-03-30T12:22:25.883Z,20.10
2019-03-30T12:24:56.910Z,38.13
2019-03-30T12:27:27.894Z,23.47
2019-03-30T12:29:58.851Z,37.27
2019-03-30T12:32:29.839Z,21.17
2019-03-30T12:35:01.800Z,27.40
2019-03-30T12:37:32.790Z,22.00
2019-03-30T12:40:03.943Z,23.00
2019-03-30T12:42:34.920Z,39.53
2019-03-30T12:45:07.887Z,30.87
2019-03-30T12:47:38.887Z,24.37
2019-03-30T12:50:10.867Z,20.87
2019-03-30T12:52:41.820Z,30.83
2019-03-30T12:55:12.900Z,22.30
2019-03-30T12:57:43.863Z,21.57
2019-03-30T13:00:15.450Z,24.30
2019-03-30T13:02:46.404Z,21.07
2019-03-30T13:05:17.379Z,25.63
2019-03-30T13:07:48.330Z,25.37
2019-03-30T13:10:19.608Z,22.20
2019-03-30T13:12:50.562Z,26.03
2019-03-30T13:15:21.551Z,24.53
2019-03-30T13:17:52.575Z,18.63
2019-03-30T13:20:23.556Z,23.00
2019-03-30T13:22:54.508Z,25.50
2019-03-30T13:25:25.588Z,20.80
2019-03-30T13:27:56.641Z,25.40
2019-03-30T13:30:28.736Z,19.43
2019-03-30T13:32:59.744Z,23.57
2019-03-30T13:35:30.725Z,22.77
2019-03-30T13:38:01.699Z,22.37
2019-03-30T13:40:32.689Z,20.90
2019-03-30T13:43:03.768Z,22.30
2019-03-30T13:45:34.741Z,36.70
2019-03-30T13:48:05.721Z,22.63
2019-03-30T13:50:36.688Z,20.00
2019-03-30T13:53:07.673Z,19.30
2019-03-30T13:55:38.643Z,23.30
2019-03-30T13:58:09.681Z,21.07
2019-03-30T14:00:40.637Z,20.13
2019-03-30T14:03:12.731Z,21.97
2019-03-30T14:05:43.695Z,25.00
2019-03-30T14:08:14.787Z,24.20
2019-03-30T14:10:45.743Z,18.07
2019-03-30T14:13:16.716Z,15.80
2019-03-30T14:15:47.666Z,18.83
2019-03-30T14:18:19.635Z,22.77
2019-03-30T14:20:50.610Z,20.10
2019-03-30T14:23:21.647Z,21.20
2019-03-30T14:25:52.701Z,23.10
2019-03-30T14:28:23.712Z,54.53
2019-03-30T14:30:54.677Z,20.23
2019-03-30T14:33:25.680Z,22.07
2019-03-30T14:35:56.678Z,22.60
2019-03-30T14:38:27.681Z,25.40
2019-03-30T14:40:58.808Z,22.30
2019-03-30T14:43:29.874Z,16.07
2019-03-30T14:46:00.861Z,21.70
2019-03-30T14:48:31.856Z,22.47
2019-03-30T14:51:02.831Z,20.07
2019-03-30T14:53:33.784Z,23.93
2019-03-30T14:56:04.770Z,20.10
2019-03-30T14:58:35.799Z,23.23
2019-03-30T15:01:07.890Z,21.47
2019-03-30T15:03:38.857Z,21.03
2019-03-30T15:06:09.892Z,19.20
2019-03-30T15:08:40.860Z,25.67
2019-03-30T15:11:11.848Z,22.30
2019-03-30T15:13:44.312Z,19.37
2019-03-30T15:16:15.330Z,21.00
2019-03-30T15:18:46.318Z,19.77
2019-03-30T15:21:17.289Z,21.73
2019-03-30T15:23:48.245Z,17.43
2019-03-30T15:26:21.908Z,19.73
2019-03-30T15:28:51.890Z,20.00
2019-03-30T15:31:22.913Z,15.80
2019-03-30T15:33:53.867Z,17.23
2019-03-30T15:36:24.851Z,18.97
2019-03-30T15:38:55.806Z,22.57
2019-03-30T15:41:27.981Z,20.90
2019-03-30T15:43:59.037Z,25.93
2019-03-30T15:46:30.013Z,22.43
2019-03-30T15:49:00.993Z,18.33
2019-03-30T15:51:32.084Z,17.20
2019-03-30T15:54:03.116Z,20.10
2019-03-30T15:56:34.063Z,20.07
2019-03-30T15:59:05.439Z,19.57
2019-03-30T16:01:36.388Z,21.37
2019-03-30T16:04:07.376Z,20.40
2019-03-30T16:06:38.318Z,22.80
2019-03-30T16:09:09.390Z,18.70
2019-03-30T16:11:40.337Z,18.50
2019-03-30T16:14:11.313Z,18.60
2019-03-30T16:16:42.272Z,22.37
2019-03-30T16:19:13.254Z,25.20
2019-03-30T16:21:44.234Z,25.40
2019-03-30T16:24:15.234Z,26.37
2019-03-30T16:26:46.263Z,33.33
2019-03-30T16:29:17.442Z,21.47
2019-03-30T16:31:48.419Z,24.47
2019-03-30T16:34:20.053Z,27.67
2019-03-30T16:36:51.198Z,23.53
2019-03-30T16:39:22.181Z,33.40
2019-03-30T16:41:53.163Z,36.93
2019-03-30T16:44:24.124Z,26.17
2019-03-30T16:46:57.440Z,29.13
2019-03-30T16:49:27.751Z,37.13
2019-03-30T16:51:58.729Z,31.87
2019-03-30T16:54:29.682Z,28.47
2019-03-30T16:57:00.657Z,29.43
2019-03-30T16:59:31.635Z,29.47
2019-03-30T17:02:02.621Z,33.60
2019-03-30T17:04:33.614Z,33.20
2019-03-30T17:07:04.715Z,32.10
2019-03-30T17:09:35.787Z,36.50
2019-03-30T17:12:06.871Z,31.40
2019-03-30T17:14:37.919Z,44.43
2019-03-30T17:17:08.918Z,36.73
2019-03-30T17:19:40.953Z,32.97
2019-03-30T17:22:11.949Z,33.77
2019-03-30T17:24:42.896Z,38.70
2019-03-30T17:27:13.912Z,42.43
2019-03-30T17:29:44.926Z,53.27
2019-03-30T17:32:16.033Z,55.87
2019-03-30T17:34:48.075Z,97.73
2019-03-30T17:37:19.132Z,104.77
2019-03-30T17:39:50.074Z,101.47
2019-03-30T17:42:21.201Z,71.47
2019-03-30T17:44:52.152Z,87.30
2019-03-30T17:47:23.151Z,97.83
2019-03-30T17:49:55.654Z,105.87
2019-03-30T17:52:28.402Z,64.00
2019-03-30T17:54:59.364Z,63.60
2019-03-30T17:57:30.532Z,57.10
2019-03-30T18:00:01.560Z,131.32
2019-03-30T18:02:32.655Z,70.87
2019-03-30T18:05:03.619Z,71.57
2019-03-30T18:07:34.613Z,113.70
2019-03-30T18:10:08.104Z,102.20
2019-03-30T18:12:39.081Z,154.15
2019-03-30T18:15:11.040Z,104.00
2019-03-30T18:17:42.027Z,137.15
2019-03-30T18:20:13.684Z,133.67
2019-03-30T18:22:44.707Z,203.05
2019-03-30T18:25:15.755Z,257.62
2019-03-30T18:27:46.775Z,128.55
2019-03-30T18:30:21.063Z,121.82
2019-03-30T18:32:53.516Z,122.42
2019-03-30T18:35:24.630Z,94.35
2019-03-30T18:37:56.118Z,57.08
2019-03-30T18:40:34.234Z,61.37
2019-03-30T18:43:05.321Z,63.05
2019-03-30T18:45:37.728Z,58.52
2019-03-30T18:48:16.599Z,57.75
2019-03-30T18:50:48.155Z,48.45
2019-03-30T18:53:19.546Z,60.05
2019-03-30T18:55:50.491Z,57.62
2019-03-30T18:58:21.475Z,60.60
2019-03-30T19:00:52.526Z,72.08
2019-03-30T19:03:23.551Z,127.82
2019-03-30T19:05:54.497Z,75.95
2019-03-30T19:08:25.479Z,51.85
2019-03-30T19:10:56.426Z,59.77
2019-03-30T19:13:27.414Z,59.30
2019-03-30T19:15:58.365Z,45.80
2019-03-30T19:18:29.407Z,41.30
2019-03-30T19:21:00.353Z,42.05
2019-03-30T19:23:32.430Z,72.65
2019-03-30T19:26:03.383Z,73.55
2019-03-30T19:28:34.356Z,74.60
2019-03-30T19:31:05.507Z,105.12
2019-03-30T19:33:36.671Z,75.97
2019-03-30T19:36:10.073Z,87.00
2019-03-30T19:38:40.305Z,95.45
2019-03-30T19:41:11.240Z,70.83
2019-03-30T19:43:42.259Z,78.37
2019-03-30T19:46:13.239Z,52.70
2019-03-30T19:48:44.212Z,61.30
2019-03-30T19:51:15.580Z,48.33
2019-03-30T19:53:46.536Z,54.38
2019-03-30T19:56:17.572Z,52.40
2019-03-30T19:58:48.570Z,51.53
2019-03-30T20:01:19.565Z,57.55
2019-03-30T20:03:50.545Z,47.62
2019-03-30T20:06:22.083Z,51.80
2019-03-30T20:08:53.135Z,46.50
2019-03-30T20:11:31.367Z,37.48
2019-03-30T20:13:59.511Z,46.63
2019-03-30T20:16:30.460Z,40.98
2019-03-30T20:19:12.152Z,37.90
2019-03-30T20:21:34.195Z,30.35
2019-03-30T20:24:05.336Z,31.12
2019-03-30T20:26:36.354Z,32.25
2019-03-30T20:29:07.327Z,29.00
2019-03-30T20:31:38.274Z,25.97
2019-03-30T20:34:09.264Z,26.75
2019-03-30T20:36:40.268Z,28.70
2019-03-30T20:39:11.537Z,25.12
2019-03-30T20:41:45.001Z,46.15
2019-03-30T20:44:17.651Z,31.73
2019-03-30T20:46:48.596Z,32.15
2019-03-30T20:49:20.652Z,37.93
2019-03-30T20:51:51.994Z,37.03
2019-03-30T20:54:22.967Z,28.73
2019-03-30T20:56:53.977Z,48.73
2019-03-30T20:59:39.013Z,58.05
2019-03-30T21:01:57.637Z,68.35
2019-03-30T21:04:28.647Z,94.52
2019-03-30T21:06:59.593Z,31.57
2019-03-30T21:09:30.568Z,38.35
2019-03-30T21:12:01.560Z,60.10
2019-03-30T21:14:32.531Z,35.03
2019-03-30T21:17:03.471Z,40.45
2019-03-30T21:19:34.448Z,36.45
2019-03-30T21:22:05.471Z,46.68
2019-03-30T21:24:37.732Z,25.85
2019-03-30T21:27:08.869Z,24.40
2019-03-30T21:29:48.501Z,35.13
2019-03-30T21:32:12.650Z,25.10
2019-03-30T21:34:43.810Z,23.98
2019-03-30T21:37:14.782Z,32.53
2019-03-30T21:39:45.844Z,47.55
2019-03-30T21:42:16.787Z,34.73
2019-03-30T21:44:47.774Z,47.25
2019-03-30T21:47:18.776Z,42.00
2019-03-30T21:49:49.949Z,47.35
2019-03-30T21:52:20.913Z,48.83
2019-03-30T21:54:52.237Z,31.10
2019-03-30T21:57:23.523Z,30.37
2019-03-30T22:00:08.699Z,25.90
2019-03-30T22:02:27.550Z,32.20
2019-03-30T22:04:58.522Z,27.65
2019-03-30T22:07:29.583Z,25.60
2019-03-30T22:10:00.803Z,30.90
2019-03-30T22:12:31.733Z,36.28
2019-03-30T22:15:03.014Z,30.50
2019-03-30T22:17:33.959Z,41.58
2019-03-30T22:20:07.134Z,25.75
2019-03-30T22:22:38.148Z,24.45
2019-03-30T22:25:09.204Z,24.77
2019-03-30T22:27:41.165Z,26.80
2019-03-30T22:30:24.034Z,23.15
2019-03-30T22:32:44.991Z,22.17
2019-03-30T22:35:15.964Z,18.57
2019-03-30T22:37:46.978Z,20.75
2019-03-30T22:40:21.297Z,23.25
2019-03-30T22:42:52.290Z,18.98
2019-03-30T22:45:26.161Z,22.25
2019-03-30T22:47:57.108Z,24.72
2019-03-30T22:50:28.076Z,18.48
2019-03-30T22:52:59.022Z,23.15
2019-03-30T22:55:29.990Z,20.32
2019-03-30T22:58:00.941Z,23.40
2019-03-30T23:00:40.537Z,19.85
2019-03-30T23:03:13.237Z,35.45
2019-03-30T23:05:44.218Z,24.30
2019-03-30T23:08:15.149Z,30.95
2019-03-30T23:10:46.161Z,39.80
2019-03-30T23:13:17.103Z,45.75
2019-03-30T23:15:48.057Z,21.27
2019-03-30T23:18:19.088Z,26.20
2019-03-30T23:20:50.070Z,22.82
2019-03-30T23:23:21.137Z,30.25
2019-03-30T23:25:52.104Z,25.17
2019-03-30T23:28:23.047Z,26.80
2019-03-30T23:30:54.879Z,18.35
2019-03-30T23:33:26.000Z,17.37
2019-03-30T23:35:57.105Z,17.55
2019-03-30T23:38:28.165Z,19.17
2019-03-30T23:40:59.245Z,19.48
2019-03-30T23:43:30.247Z,25.20
2019-03-30T23:46:01.215Z,24.00
2019-03-30T23:48:32.176Z,19.17
2019-03-30T23:51:03.191Z,24.12
2019-03-30T23:53:34.137Z,21.62
2019-03-30T23:56:08.496Z,19.90
2019-03-30T23:58:39.659Z,26.50
